sensor_id;sensor_type;location;lat;lon;timestamp;pressure;altitude;pressure_sealevel;temperature;humidity
50282;BME280;36176;51.506;10.272;2024-03-08T00:02:18;99939.09;;;-2.42;95.01
50282;BME280;36176;51.506;10.272;2024-03-08T00:04:59;99932.97;;;-2.45;94.95
50282;BME280;36176;51.506;10.272;2024-03-08T00:14:51;99919.13;;;-2.47;94.85
50282;BME280;36176;51.506;10.272;2024-03-08T00:21:26;99915.50;;;-2.59;94.92
50282;BME280;36176;51.506;10.272;2024-03-08T00:24:11;99912.91;;;-2.59;96.14
50282;BME280;36176;51.506;10.272;2024-03-08T00:26:42;99912.97;;;-2.55;95.62
50282;BME280;36176;51.506;10.272;2024-03-08T00:29:34;99907.78;;;-2.55;95.08
50282;BME280;36176;51.506;10.272;2024-03-08T00:32:34;99912.97;;;-2.55;95.67
50282;BME280;36176;51.506;10.272;2024-03-08T00:39:03;99904.28;;;-2.58;95.53
50282;BME280;36176;51.506;10.272;2024-03-08T00:41:38;99900.84;;;-2.58;96.36
50282;BME280;36176;51.506;10.272;2024-03-08T00:44:28;99895.66;;;-2.55;95.47
50282;BME280;36176;51.506;10.272;2024-03-08T00:47:00;99886.16;;;-2.54;96.47
50282;BME280;36176;51.506;10.272;2024-03-08T00:49:50;99887.13;;;-2.45;97.25
50282;BME280;36176;51.506;10.272;2024-03-08T00:59:43;99871.81;;;-1.25;95.97
50282;BME280;36176;51.506;10.272;2024-03-08T01:02:39;99865.09;;;-0.96;94.22
50282;BME280;36176;51.506;10.272;2024-03-08T01:05:28;99864.38;;;-0.61;92.17
50282;BME280;36176;51.506;10.272;2024-03-08T01:08:19;99873.97;;;-0.52;91.44
50282;BME280;36176;51.506;10.272;2024-03-08T01:11:17;99867.03;;;-0.52;90.39
50282;BME280;36176;51.506;10.272;2024-03-08T01:13:45;99860.94;;;-0.51;90.47
50282;BME280;36176;51.506;10.272;2024-03-08T01:20:00;99858.34;;;-0.54;90.08
50282;BME280;36176;51.506;10.272;2024-03-08T01:23:10;99862.63;;;-0.65;90.39
50282;BME280;36176;51.506;10.272;2024-03-08T01:29:59;99854.72;;;-0.88;90.07
50282;BME280;36176;51.506;10.272;2024-03-08T01:33:27;99843.38;;;-0.99;91.19
50282;BME280;36176;51.506;10.272;2024-03-08T01:36:39;99827.72;;;-1.10;90.88
50282;BME280;36176;51.506;10.272;2024-03-08T01:39:22;99826.78;;;-1.21;91.65
50282;BME280;36176;51.506;10.272;2024-03-08T01:42:21;99823.31;;;-1.23;91.39
50282;BME280;36176;51.506;10.272;2024-03-08T01:45:35;99817.25;;;-1.24;91.86
50282;BME280;36176;51.506;10.272;2024-03-08T01:48:29;99812.84;;;-1.30;91.62
50282;BME280;36176;51.506;10.272;2024-03-08T01:52:13;99806.84;;;-1.24;92.34
50282;BME280;36176;51.506;10.272;2024-03-08T01:55:11;99794.75;;;-1.17;91.91
50282;BME280;36176;51.506;10.272;2024-03-08T01:58:41;99798.25;;;-1.09;92.01
50282;BME280;36176;51.506;10.272;2024-03-08T02:01:32;99794.84;;;-1.00;92.47
50282;BME280;36176;51.506;10.272;2024-03-08T02:04:44;99793.13;;;-0.92;91.99
50282;BME280;36176;51.506;10.272;2024-03-08T02:07:38;99790.56;;;-0.84;91.89
50282;BME280;36176;51.506;10.272;2024-03-08T02:10:34;99787.94;;;-0.81;91.45
50282;BME280;36176;51.506;10.272;2024-03-08T02:14:14;99786.25;;;-0.78;91.54
50282;BME280;36176;51.506;10.272;2024-03-08T02:16:59;99788.88;;;-0.73;91.27
50282;BME280;36176;51.506;10.272;2024-03-08T02:20:01;99788.00;;;-0.74;91.43
50282;BME280;36176;51.506;10.272;2024-03-08T02:23:06;99783.66;;;-0.70;90.96
50282;BME280;36176;51.506;10.272;2024-03-08T02:25:53;99779.34;;;-0.71;90.81
50282;BME280;36176;51.506;10.272;2024-03-08T02:28:51;99773.25;;;-0.75;91.11
50282;BME280;36176;51.506;10.272;2024-03-08T02:32:24;99777.53;;;-0.81;90.66
50282;BME280;36176;51.506;10.272;2024-03-08T02:35:07;99777.53;;;-0.89;90.01
50282;BME280;36176;51.506;10.272;2024-03-08T02:37:52;99780.09;;;-0.94;90.80
50282;BME280;36176;51.506;10.272;2024-03-08T02:40:47;99769.69;;;-1.00;90.26
50282;BME280;36176;51.506;10.272;2024-03-08T02:43:30;99768.78;;;-1.07;90.59
50282;BME280;36176;51.506;10.272;2024-03-08T02:46:12;99766.97;;;-1.20;89.69
50282;BME280;36176;51.506;10.272;2024-03-08T02:51:29;99766.06;;;-1.33;90.19
50282;BME280;36176;51.506;10.272;2024-03-08T02:54:18;99759.97;;;-1.35;91.14
50282;BME280;36176;51.506;10.272;2024-03-08T02:56:59;99757.34;;;-1.41;90.47
50282;BME280;36176;51.506;10.272;2024-03-08T02:59:42;99757.38;;;-1.38;91.35
50282;BME280;36176;51.506;10.272;2024-03-08T03:02:41;99756.47;;;-1.40;90.85
50282;BME280;36176;51.506;10.272;2024-03-08T03:05:39;99753.03;;;-1.39;90.82
50282;BME280;36176;51.506;10.272;2024-03-08T03:08:30;99753.88;;;-1.43;92.02
50282;BME280;36176;51.506;10.272;2024-03-08T03:11:51;99748.69;;;-1.40;91.80
50282;BME280;36176;51.506;10.272;2024-03-08T03:18:33;99746.84;;;-1.59;90.43
50282;BME280;36176;51.506;10.272;2024-03-08T03:21:38;99749.38;;;-1.68;90.29
50282;BME280;36176;51.506;10.272;2024-03-08T03:28:34;99746.59;;;-1.96;90.43
50282;BME280;36176;51.506;10.272;2024-03-08T03:31:36;99751.69;;;-2.04;91.87
50282;BME280;36176;51.506;10.272;2024-03-08T03:34:33;99743.88;;;-2.13;91.84
50282;BME280;36176;51.506;10.272;2024-03-08T03:38:01;99745.53;;;-2.17;92.54
50282;BME280;36176;51.506;10.272;2024-03-08T03:41:21;99747.25;;;-2.22;93.22
50282;BME280;36176;51.506;10.272;2024-03-08T03:44:17;99747.25;;;-2.20;93.00
50282;BME280;36176;51.506;10.272;2024-03-08T03:47:36;99749.84;;;-2.22;92.68
50282;BME280;36176;51.506;10.272;2024-03-08T03:50:16;99741.13;;;-2.27;92.59
50282;BME280;36176;51.506;10.272;2024-03-08T03:57:24;99735.91;;;-2.30;93.42
50282;BME280;36176;51.506;10.272;2024-03-08T04:00:21;99739.38;;;-2.28;93.38
50282;BME280;36176;51.506;10.272;2024-03-08T04:03:15;99735.16;;;-2.20;95.00
50282;BME280;36176;51.506;10.272;2024-03-08T04:06:15;99734.41;;;-2.03;94.67
50282;BME280;36176;51.506;10.272;2024-03-08T04:16:23;99726.88;;;-1.69;93.69
50282;BME280;36176;51.506;10.272;2024-03-08T04:20:04;99725.13;;;-1.72;93.93
50282;BME280;36176;51.506;10.272;2024-03-08T04:23:10;99724.19;;;-1.79;93.33
50282;BME280;36176;51.506;10.272;2024-03-08T04:30:09;99725.84;;;-1.91;93.00
50282;BME280;36176;51.506;10.272;2024-03-08T04:33:01;99719.78;;;-1.90;94.34
50282;BME280;36176;51.506;10.272;2024-03-08T04:37:16;99717.16;;;-1.92;93.72
50282;BME280;36176;51.506;10.272;2024-03-08T04:40:11;99715.44;;;-1.93;93.52
50282;BME280;36176;51.506;10.272;2024-03-08T04:47:14;99715.47;;;-1.87;94.83
50282;BME280;36176;51.506;10.272;2024-03-08T04:50:02;99708.63;;;-1.79;93.85
50282;BME280;36176;51.506;10.272;2024-03-08T04:53:11;99700.84;;;-1.77;94.08
50282;BME280;36176;51.506;10.272;2024-03-08T05:08:43;99700.09;;;-1.58;93.61
50282;BME280;36176;51.506;10.272;2024-03-08T05:11:12;99691.38;;;-1.61;93.47
50282;BME280;36176;51.506;10.272;2024-03-08T05:13:40;99700.03;;;-1.65;93.29
50282;BME280;36176;51.506;10.272;2024-03-08T05:16:08;99699.16;;;-1.67;93.74
50282;BME280;36176;51.506;10.272;2024-03-08T05:18:36;99699.16;;;-1.67;93.72
50282;BME280;36176;51.506;10.272;2024-03-08T05:21:09;99687.91;;;-1.63;94.54
50282;BME280;36176;51.506;10.272;2024-03-08T05:23:38;99694.03;;;-1.55;94.65
50282;BME280;36176;51.506;10.272;2024-03-08T05:26:08;99689.72;;;-1.52;94.58
50282;BME280;36176;51.506;10.272;2024-03-08T05:28:36;99687.13;;;-1.47;93.96
50282;BME280;36176;51.506;10.272;2024-03-08T05:31:07;99690.63;;;-1.42;94.79
50282;BME280;36176;51.506;10.272;2024-03-08T05:33:42;99689.78;;;-1.38;94.43
50282;BME280;36176;51.506;10.272;2024-03-08T05:36:14;99690.66;;;-1.33;93.85
50282;BME280;36176;51.506;10.272;2024-03-08T05:38:45;99688.94;;;-1.31;93.51
50282;BME280;36176;51.506;10.272;2024-03-08T05:41:12;99686.34;;;-1.31;94.17
50282;BME280;36176;51.506;10.272;2024-03-08T05:43:43;99684.63;;;-1.32;94.19
50282;BME280;36176;51.506;10.272;2024-03-08T05:46:16;99694.13;;;-1.32;94.35
50282;BME280;36176;51.506;10.272;2024-03-08T05:48:44;99690.69;;;-1.31;94.81
50282;BME280;36176;51.506;10.272;2024-03-08T05:51:12;99684.63;;;-1.25;94.12
50282;BME280;36176;51.506;10.272;2024-03-08T05:53:41;99689.84;;;-1.22;94.36
50282;BME280;36176;51.506;10.272;2024-03-08T05:56:10;99689.84;;;-1.21;93.85
50282;BME280;36176;51.506;10.272;2024-03-08T05:58:37;99691.59;;;-1.21;94.20
50282;BME280;36176;51.506;10.272;2024-03-08T06:01:06;99691.56;;;-1.20;94.14
50282;BME280;36176;51.506;10.272;2024-03-08T06:03:35;99689.88;;;-1.16;93.69
50282;BME280;36176;51.506;10.272;2024-03-08T06:06:03;99683.78;;;-1.15;93.88
50282;BME280;36176;51.506;10.272;2024-03-08T06:08:30;99688.16;;;-1.14;93.95
50282;BME280;36176;51.506;10.272;2024-03-08T06:11:00;99694.22;;;-1.14;93.91
50282;BME280;36176;51.506;10.272;2024-03-08T06:13:30;99695.06;;;-1.13;94.30
50282;BME280;36176;51.506;10.272;2024-03-08T06:15:57;99691.63;;;-1.12;93.93
50282;BME280;36176;51.506;10.272;2024-03-08T06:18:26;99696.84;;;-1.09;94.13
50282;BME280;36176;51.506;10.272;2024-03-08T06:21:05;99687.31;;;-1.04;93.98
50282;BME280;36176;51.506;10.272;2024-03-08T06:23:36;99688.19;;;-1.00;94.47
50282;BME280;36176;51.506;10.272;2024-03-08T06:26:07;99696.00;;;-0.94;93.59
50282;BME280;36176;51.506;10.272;2024-03-08T06:28:41;99689.94;;;-0.87;93.77
50282;BME280;36176;51.506;10.272;2024-03-08T06:31:10;99691.72;;;-0.78;93.96
50282;BME280;36176;51.506;10.272;2024-03-08T06:33:39;99691.75;;;-0.57;93.90
50282;BME280;36176;51.506;10.272;2024-03-08T06:36:07;99692.66;;;-0.33;94.07
50282;BME280;36176;51.506;10.272;2024-03-08T06:38:35;99690.91;;;-0.08;92.96
50282;BME280;36176;51.506;10.272;2024-03-08T06:41:05;99690.00;;;0.16;92.21
50282;BME280;36176;51.506;10.272;2024-03-08T06:43:35;99689.09;;;0.35;91.19
50282;BME280;36176;51.506;10.272;2024-03-08T06:46:03;99695.16;;;0.51;90.03
50282;BME280;36176;51.506;10.272;2024-03-08T06:48:31;99689.88;;;0.62;89.56
50282;BME280;36176;51.506;10.272;2024-03-08T06:51:00;99686.38;;;0.69;88.76
50282;BME280;36176;51.506;10.272;2024-03-08T06:53:28;99695.06;;;0.71;87.78
50282;BME280;36176;51.506;10.272;2024-03-08T06:55:55;99691.56;;;0.74;88.58
50282;BME280;36176;51.506;10.272;2024-03-08T06:58:22;99681.97;;;0.83;87.18
50282;BME280;36176;51.506;10.272;2024-03-08T07:00:54;99686.31;;;0.86;86.47
50282;BME280;36176;51.506;10.272;2024-03-08T07:03:21;99676.75;;;0.88;87.03
50282;BME280;36176;51.506;10.272;2024-03-08T07:05:48;99679.34;;;0.90;86.43
50282;BME280;36176;51.506;10.272;2024-03-08T07:08:19;99674.97;;;0.96;86.34
50282;BME280;36176;51.506;10.272;2024-03-08T07:10:46;99679.28;;;1.02;85.97
50282;BME280;36176;51.506;10.272;2024-03-08T07:13:13;99684.47;;;1.08;85.86
50282;BME280;36176;51.506;10.272;2024-03-08T07:15:40;99678.38;;;1.09;85.64
50282;BME280;36176;51.506;10.272;2024-03-08T07:18:07;99676.56;;;1.25;85.85
50282;BME280;36176;51.506;10.272;2024-03-08T07:20:34;99674.69;;;1.44;85.52
50282;BME280;36176;51.506;10.272;2024-03-08T07:23:02;99675.50;;;1.54;84.91
50282;BME280;36176;51.506;10.272;2024-03-08T07:25:29;99666.66;;;1.68;84.33
50282;BME280;36176;51.506;10.272;2024-03-08T07:27:56;99669.13;;;1.87;84.47
50282;BME280;36176;51.506;10.272;2024-03-08T07:30:25;99657.72;;;1.97;82.97
50282;BME280;36176;51.506;10.272;2024-03-08T07:32:56;99660.97;;;2.21;82.47
50282;BME280;36176;51.506;10.272;2024-03-08T07:35:23;99661.59;;;2.43;81.32
50282;BME280;36176;51.506;10.272;2024-03-08T07:37:50;99662.22;;;2.65;80.76
50282;BME280;36176;51.506;10.272;2024-03-08T07:40:17;99660.28;;;2.81;78.50
50282;BME280;36176;51.506;10.272;2024-03-08T07:42:44;99654.84;;;2.96;79.14
50282;BME280;36176;51.506;10.272;2024-03-08T07:45:12;99647.53;;;3.19;76.69
50282;BME280;36176;51.506;10.272;2024-03-08T07:47:39;99644.47;;;3.50;77.64
50282;BME280;36176;51.506;10.272;2024-03-08T07:50:07;99643.69;;;3.96;76.17
50282;BME280;36176;51.506;10.272;2024-03-08T07:52:36;99643.94;;;4.31;75.55
50282;BME280;36176;51.506;10.272;2024-03-08T07:55:03;99641.88;;;4.48;73.94
50282;BME280;36176;51.506;10.272;2024-03-08T07:57:31;99641.47;;;4.68;71.75
50282;BME280;36176;51.506;10.272;2024-03-08T07:59:58;99632.78;;;5.05;71.56
50282;BME280;36176;51.506;10.272;2024-03-08T08:02:25;99633.88;;;5.35;70.11
50282;BME280;36176;51.506;10.272;2024-03-08T08:04:53;99620.47;;;5.46;69.24
50282;BME280;36176;51.506;10.272;2024-03-08T08:07:20;99621.16;;;5.90;70.43
50282;BME280;36176;51.506;10.272;2024-03-08T08:09:47;99625.03;;;6.11;66.80
50282;BME280;36176;51.506;10.272;2024-03-08T08:12:14;99626.91;;;6.06;65.55
50282;BME280;36176;51.506;10.272;2024-03-08T08:14:41;99626.38;;;6.26;65.86
50282;BME280;36176;51.506;10.272;2024-03-08T08:17:12;99610.63;;;6.24;65.15
50282;BME280;36176;51.506;10.272;2024-03-08T08:19:40;99621.16;;;6.55;64.85
50282;BME280;36176;51.506;10.272;2024-03-08T08:22:07;99625.13;;;6.70;64.63
50282;BME280;36176;51.506;10.272;2024-03-08T08:24:35;99620.38;;;6.83;61.63
50282;BME280;36176;51.506;10.272;2024-03-08T08:27:03;99614.28;;;6.81;62.05
50282;BME280;36176;51.506;10.272;2024-03-08T08:29:32;99617.22;;;6.70;63.35
50282;BME280;36176;51.506;10.272;2024-03-08T08:32:00;99609.78;;;7.14;63.28
50282;BME280;36176;51.506;10.272;2024-03-08T08:34:29;99607.69;;;7.52;61.28
50282;BME280;36176;51.506;10.272;2024-03-08T08:36:57;99615.06;;;7.69;59.76
50282;BME280;36176;51.506;10.272;2024-03-08T08:39:24;99605.41;;;7.68;57.62
50282;BME280;36176;51.506;10.272;2024-03-08T08:41:51;99598.69;;;7.84;59.20
50282;BME280;36176;51.506;10.272;2024-03-08T08:44:21;99597.97;;;8.31;60.01
50282;BME280;36176;51.506;10.272;2024-03-08T08:46:48;99584.25;;;8.21;57.24
50282;BME280;36176;51.506;10.272;2024-03-08T08:49:22;99582.94;;;8.58;58.46
50282;BME280;36176;51.506;10.272;2024-03-08T08:51:49;99589.34;;;8.75;55.44
50282;BME280;36176;51.506;10.272;2024-03-08T08:54:20;99580.75;;;8.46;55.72
50282;BME280;36176;51.506;10.272;2024-03-08T08:56:47;99575.69;;;8.87;57.73
50282;BME280;36176;51.506;10.272;2024-03-08T08:59:14;99574.72;;;9.11;54.71
50282;BME280;36176;51.506;10.272;2024-03-08T09:01:48;99573.09;;;8.85;56.01
50282;BME280;36176;51.506;10.272;2024-03-08T09:04:15;99568.22;;;9.20;55.86
50282;BME280;36176;51.506;10.272;2024-03-08T09:06:43;99560.22;;;9.44;52.71
50282;BME280;36176;51.506;10.272;2024-03-08T09:09:10;99567.03;;;9.27;55.75
50282;BME280;36176;51.506;10.272;2024-03-08T09:11:37;99571.66;;;9.22;52.41
50282;BME280;36176;51.506;10.272;2024-03-08T09:14:05;99575.03;;;9.04;54.07
50282;BME280;36176;51.506;10.272;2024-03-08T09:16:32;99568.56;;;8.89;53.85
50282;BME280;36176;51.506;10.272;2024-03-08T09:18:59;99556.22;;;9.11;55.87
50282;BME280;36176;51.506;10.272;2024-03-08T09:21:26;99560.16;;;9.23;53.00
50282;BME280;36176;51.506;10.272;2024-03-08T09:23:53;99549.13;;;9.12;52.33
50282;BME280;36176;51.506;10.272;2024-03-08T09:26:21;99556.84;;;8.72;53.05
50282;BME280;36176;51.506;10.272;2024-03-08T09:28:56;99545.00;;;9.05;56.41
50282;BME280;36176;51.506;10.272;2024-03-08T09:31:23;99543.78;;;9.78;53.06
50282;BME280;36176;51.506;10.272;2024-03-08T09:33:50;99542.78;;;10.01;51.65
50282;BME280;36176;51.506;10.272;2024-03-08T09:36:17;99534.03;;;10.19;53.36
50282;BME280;36176;51.506;10.272;2024-03-08T09:38:45;99540.25;;;10.18;50.56
50282;BME280;36176;51.506;10.272;2024-03-08T09:41:12;99526.72;;;9.85;52.13
50282;BME280;36176;51.506;10.272;2024-03-08T09:43:39;99526.66;;;9.87;51.29
50282;BME280;36176;51.506;10.272;2024-03-08T09:46:07;99526.50;;;9.90;52.48
50282;BME280;36176;51.506;10.272;2024-03-08T09:48:34;99519.16;;;9.55;54.17
50282;BME280;36176;51.506;10.272;2024-03-08T09:51:03;99515.16;;;9.45;52.59
50282;BME280;36176;51.506;10.272;2024-03-08T09:53:34;99514.03;;;9.30;54.42
50282;BME280;36176;51.506;10.272;2024-03-08T09:56:06;99502.88;;;9.44;54.77
50282;BME280;36176;51.506;10.272;2024-03-08T09:58:37;99500.38;;;9.82;53.08
50282;BME280;36176;51.506;10.272;2024-03-08T10:01:04;99498.94;;;10.14;53.08
50282;BME280;36176;51.506;10.272;2024-03-08T10:03:33;99495.59;;;9.90;52.87
50282;BME280;36176;51.506;10.272;2024-03-08T10:06:00;99494.47;;;9.55;52.09
50282;BME280;36176;51.506;10.272;2024-03-08T10:08:28;99486.28;;;9.41;53.47
50282;BME280;36176;51.506;10.272;2024-03-08T10:10:56;99484.78;;;9.55;53.21
50282;BME280;36176;51.506;10.272;2024-03-08T10:13:25;99486.53;;;9.55;54.82
50282;BME280;36176;51.506;10.272;2024-03-08T10:15:52;99470.94;;;9.28;52.07
50282;BME280;36176;51.506;10.272;2024-03-08T10:18:20;99473.38;;;9.12;53.23
50282;BME280;36176;51.506;10.272;2024-03-08T10:21:05;99474.09;;;9.16;55.25
50282;BME280;36176;51.506;10.272;2024-03-08T10:23:33;99466.09;;;9.18;54.01
50282;BME280;36176;51.506;10.272;2024-03-08T10:26:14;99463.38;;;9.19;57.07
50282;BME280;36176;51.506;10.272;2024-03-08T10:28:44;99461.19;;;9.51;54.99
50282;BME280;36176;51.506;10.272;2024-03-08T10:31:11;99454.34;;;9.45;54.69
50282;BME280;36176;51.506;10.272;2024-03-08T10:33:45;99449.47;;;9.56;53.80
50282;BME280;36176;51.506;10.272;2024-03-08T10:36:14;99449.59;;;9.53;53.24
50282;BME280;36176;51.506;10.272;2024-03-08T10:38:42;99447.69;;;9.36;53.66
50282;BME280;36176;51.506;10.272;2024-03-08T10:41:10;99447.31;;;9.65;54.30
50282;BME280;36176;51.506;10.272;2024-03-08T10:43:51;99446.94;;;9.74;53.38
50282;BME280;36176;51.506;10.272;2024-03-08T10:46:30;99447.06;;;9.50;53.59
50282;BME280;36176;51.506;10.272;2024-03-08T10:48:58;99438.16;;;9.32;54.13
50282;BME280;36176;51.506;10.272;2024-03-08T10:51:28;99449.44;;;9.15;54.20
50282;BME280;36176;51.506;10.272;2024-03-08T10:53:58;99443.00;;;9.01;55.05
50282;BME280;36176;51.506;10.272;2024-03-08T10:56:26;99431.06;;;8.90;55.16
50282;BME280;36176;51.506;10.272;2024-03-08T10:58:54;99436.31;;;8.70;55.81
50282;BME280;36176;51.506;10.272;2024-03-08T11:01:21;99430.88;;;8.52;58.29
50282;BME280;36176;51.506;10.272;2024-03-08T11:03:49;99422.97;;;8.73;58.35
50282;BME280;36176;51.506;10.272;2024-03-08T11:06:29;99413.84;;;9.02;56.80
50282;BME280;36176;51.506;10.272;2024-03-08T11:08:57;99419.63;;;9.12;56.23
50282;BME280;36176;51.506;10.272;2024-03-08T11:11:32;99411.06;;;9.27;58.83
50282;BME280;36176;51.506;10.272;2024-03-08T11:14:02;99405.38;;;9.36;56.58
50282;BME280;36176;51.506;10.272;2024-03-08T11:19:01;99396.53;;;9.17;55.60
50282;BME280;36176;51.506;10.272;2024-03-08T11:21:29;99385.66;;;9.23;56.84
50282;BME280;36176;51.506;10.272;2024-03-08T11:24:00;99374.34;;;9.40;55.32
50282;BME280;36176;51.506;10.272;2024-03-08T11:26:29;99387.00;;;9.13;56.45
50282;BME280;36176;51.506;10.272;2024-03-08T11:32:08;99377.19;;;8.94;54.60
50282;BME280;36176;51.506;10.272;2024-03-08T11:34:36;99383.69;;;8.86;57.15
50282;BME280;36176;51.506;10.272;2024-03-08T11:37:04;99377.19;;;8.94;55.89
50282;BME280;36176;51.506;10.272;2024-03-08T11:39:31;99374.13;;;8.83;56.50
50282;BME280;36176;51.506;10.272;2024-03-08T11:41:59;99373.75;;;8.92;55.95
50282;BME280;36176;51.506;10.272;2024-03-08T11:44:26;99359.53;;;8.95;55.66
50282;BME280;36176;51.506;10.272;2024-03-08T11:46:54;99364.03;;;8.72;56.04
50282;BME280;36176;51.506;10.272;2024-03-08T11:49:21;99370.72;;;8.81;56.66
50282;BME280;36176;51.506;10.272;2024-03-08T11:51:53;99359.72;;;8.90;55.42
50282;BME280;36176;51.506;10.272;2024-03-08T11:54:21;99358.50;;;8.99;55.36
50282;BME280;36176;51.506;10.272;2024-03-08T11:56:51;99379.53;;;8.80;53.77
50282;BME280;36176;51.506;10.272;2024-03-08T11:59:19;99365.06;;;8.68;55.33
50282;BME280;36176;51.506;10.272;2024-03-08T12:01:58;99339.81;;;8.61;55.32
50282;BME280;36176;51.506;10.272;2024-03-08T12:04:26;99349.31;;;8.87;55.89
50282;BME280;36176;51.506;10.272;2024-03-08T12:06:53;99344.28;;;9.02;56.83
50282;BME280;36176;51.506;10.272;2024-03-08T12:09:20;99339.97;;;9.40;55.05
50282;BME280;36176;51.506;10.272;2024-03-08T12:11:48;99332.00;;;9.21;53.49
50282;BME280;36176;51.506;10.272;2024-03-08T12:14:15;99328.56;;;9.19;54.94
50282;BME280;36176;51.506;10.272;2024-03-08T12:16:52;99328.25;;;9.27;54.73
50282;BME280;36176;51.506;10.272;2024-03-08T12:19:36;99326.19;;;9.52;55.56
50282;BME280;36176;51.506;10.272;2024-03-08T12:22:14;99308.03;;;9.45;54.40
50282;BME280;36176;51.506;10.272;2024-03-08T12:24:42;99315.50;;;9.55;54.99
50282;BME280;36176;51.506;10.272;2024-03-08T12:27:20;99309.13;;;9.59;54.05
50282;BME280;36176;51.506;10.272;2024-03-08T12:29:47;99308.34;;;9.57;53.37
50282;BME280;36176;51.506;10.272;2024-03-08T12:32:17;99305.34;;;9.46;53.45
50282;BME280;36176;51.506;10.272;2024-03-08T12:34:52;99310.47;;;9.49;55.79
50282;BME280;36176;51.506;10.272;2024-03-08T12:37:22;99296.63;;;9.63;56.73
50282;BME280;36176;51.506;10.272;2024-03-08T12:39:54;99289.03;;;9.74;56.95
50282;BME280;36176;51.506;10.272;2024-03-08T12:42:21;99297.69;;;9.78;55.27
50282;BME280;36176;51.506;10.272;2024-03-08T12:44:48;99294.25;;;9.95;55.26
50282;BME280;36176;51.506;10.272;2024-03-08T12:47:15;99288.19;;;9.93;56.66
50282;BME280;36176;51.506;10.272;2024-03-08T12:49:43;99285.31;;;9.97;56.44
50282;BME280;36176;51.506;10.272;2024-03-08T12:52:11;99282.88;;;9.74;55.93
50282;BME280;36176;51.506;10.272;2024-03-08T12:54:38;99275.38;;;9.84;56.46
50282;BME280;36176;51.506;10.272;2024-03-08T12:57:05;99283.75;;;9.74;56.37
50282;BME280;36176;51.506;10.272;2024-03-08T12:59:33;99267.09;;;9.72;56.83
50282;BME280;36176;51.506;10.272;2024-03-08T13:02:00;99265.22;;;9.74;57.06
50282;BME280;36176;51.506;10.272;2024-03-08T13:04:30;99268.75;;;9.75;55.89
50282;BME280;36176;51.506;10.272;2024-03-08T13:07:01;99262.25;;;9.63;56.98
50282;BME280;36176;51.506;10.272;2024-03-08T13:09:28;99253.56;;;9.78;58.34
50282;BME280;36176;51.506;10.272;2024-03-08T13:11:55;99261.66;;;9.94;57.66
50282;BME280;36176;51.506;10.272;2024-03-08T13:14:22;99247.91;;;9.86;57.83
50282;BME280;36176;51.506;10.272;2024-03-08T13:16:50;99244.13;;;9.92;57.21
50282;BME280;36176;51.506;10.272;2024-03-08T13:19:17;99239.31;;;10.00;56.29
50282;BME280;36176;51.506;10.272;2024-03-08T13:21:46;99235.00;;;10.16;54.24
50282;BME280;36176;51.506;10.272;2024-03-08T13:24:13;99238.47;;;9.99;54.19
50282;BME280;36176;51.506;10.272;2024-03-08T13:26:41;99225.38;;;9.96;54.24
50282;BME280;36176;51.506;10.272;2024-03-08T13:29:08;99221.84;;;9.96;55.82
50282;BME280;36176;51.506;10.272;2024-03-08T13:31:35;99226.25;;;9.97;57.59
50282;BME280;36176;51.506;10.272;2024-03-08T13:34:02;99219.94;;;9.99;57.17
50282;BME280;36176;51.506;10.272;2024-03-08T13:36:29;99217.75;;;10.08;57.80
50282;BME280;36176;51.506;10.272;2024-03-08T13:38:57;99224.94;;;10.06;57.20
50282;BME280;36176;51.506;10.272;2024-03-08T13:41:24;99212.19;;;9.58;57.10
50282;BME280;36176;51.506;10.272;2024-03-08T13:43:51;99203.91;;;9.47;59.17
50282;BME280;36176;51.506;10.272;2024-03-08T13:46:19;99207.69;;;9.42;57.36
50282;BME280;36176;51.506;10.272;2024-03-08T13:48:46;99198.97;;;9.40;59.63
50282;BME280;36176;51.506;10.272;2024-03-08T13:51:13;99210.72;;;9.53;59.50
50282;BME280;36176;51.506;10.272;2024-03-08T13:53:40;99202.09;;;9.48;57.99
50282;BME280;36176;51.506;10.272;2024-03-08T13:56:07;99204.03;;;9.25;58.13
50282;BME280;36176;51.506;10.272;2024-03-08T13:58:34;99202.88;;;9.12;59.39
50282;BME280;36176;51.506;10.272;2024-03-08T14:01:02;99187.66;;;8.98;60.42
50282;BME280;36176;51.506;10.272;2024-03-08T14:03:29;99189.56;;;8.94;61.34
50282;BME280;36176;51.506;10.272;2024-03-08T14:05:56;99180.50;;;8.81;61.37
50282;BME280;36176;51.506;10.272;2024-03-08T14:08:24;99185.06;;;8.78;61.66
50282;BME280;36176;51.506;10.272;2024-03-08T14:10:51;99192.03;;;8.79;61.59
50282;BME280;36176;51.506;10.272;2024-03-08T14:13:18;99185.34;;;8.71;61.17
50282;BME280;36176;51.506;10.272;2024-03-08T14:15:45;99177.88;;;8.61;61.96
50282;BME280;36176;51.506;10.272;2024-03-08T14:18:12;99174.44;;;8.59;62.63
50282;BME280;36176;51.506;10.272;2024-03-08T14:20:40;99172.28;;;8.48;62.52
50282;BME280;36176;51.506;10.272;2024-03-08T14:23:07;99171.00;;;8.36;62.04
50282;BME280;36176;51.506;10.272;2024-03-08T14:25:34;99169.72;;;8.24;63.25
50282;BME280;36176;51.506;10.272;2024-03-08T14:28:02;99154.88;;;8.22;63.67
50282;BME280;36176;51.506;10.272;2024-03-08T14:30:35;99144.25;;;8.23;63.43
50282;BME280;36176;51.506;10.272;2024-03-08T14:33:05;99144.44;;;8.19;63.49
50282;BME280;36176;51.506;10.272;2024-03-08T14:35:33;99135.63;;;8.20;63.79
50282;BME280;36176;51.506;10.272;2024-03-08T14:38:00;99143.34;;;8.24;64.90
50282;BME280;36176;51.506;10.272;2024-03-08T14:40:27;99135.28;;;8.27;63.93
50282;BME280;36176;51.506;10.272;2024-03-08T14:42:54;99136.91;;;8.30;64.33
50282;BME280;36176;51.506;10.272;2024-03-08T14:45:21;99138.84;;;8.26;63.34
50282;BME280;36176;51.506;10.272;2024-03-08T14:47:49;99135.41;;;8.24;64.48
50282;BME280;36176;51.506;10.272;2024-03-08T14:50:18;99126.56;;;8.25;64.51
50282;BME280;36176;51.506;10.272;2024-03-08T14:52:46;99130.94;;;8.26;63.56
50282;BME280;36176;51.506;10.272;2024-03-08T14:55:19;99113.50;;;8.22;63.08
50282;BME280;36176;51.506;10.272;2024-03-08T14:57:51;99124.66;;;8.08;63.95
50282;BME280;36176;51.506;10.272;2024-03-08T15:00:20;99123.00;;;8.06;63.06